createdAt,value
2022-08-16T00:01:29.020Z,21.87
2022-08-16T00:04:05.089Z,21.82
2022-08-16T00:06:33.487Z,21.74
2022-08-16T00:09:01.635Z,21.73
2022-08-16T00:11:29.770Z,21.70
2022-08-16T00:13:58.155Z,21.68
2022-08-16T00:17:05.812Z,21.66
2022-08-16T00:19:22.793Z,21.64
2022-08-16T00:21:53.113Z,21.60
2022-08-16T00:24:32.718Z,21.57
2022-08-16T00:27:01.339Z,21.52
2022-08-16T00:29:30.812Z,21.49
2022-08-16T00:32:06.629Z,21.44
2022-08-16T00:34:44.698Z,21.40
2022-08-16T00:37:24.437Z,21.38
2022-08-16T00:39:58.591Z,21.34
2022-08-16T00:42:31.638Z,21.31
2022-08-16T00:45:08.482Z,21.28
2022-08-16T00:47:42.637Z,21.25
2022-08-16T00:50:17.377Z,21.21
2022-08-16T00:52:45.986Z,21.20
2022-08-16T00:55:21.898Z,21.16
2022-08-16T00:57:58.722Z,21.15
2022-08-16T01:00:30.627Z,21.13
2022-08-16T01:03:03.559Z,21.11
2022-08-16T01:05:32.791Z,21.09
2022-08-16T01:08:01.651Z,21.08
2022-08-16T01:10:33.538Z,21.05
2022-08-16T01:13:06.624Z,21.02
2022-08-16T01:15:35.270Z,21.02
2022-08-16T01:18:06.431Z,20.99
2022-08-16T01:20:37.053Z,20.98
2022-08-16T01:23:11.610Z,20.95
2022-08-16T01:25:44.264Z,20.89
2022-08-16T01:28:19.912Z,20.83
2022-08-16T01:30:50.808Z,20.78
2022-08-16T01:33:22.620Z,20.78
2022-08-16T01:35:56.195Z,20.77
2022-08-16T01:38:28.863Z,20.75
2022-08-16T01:41:03.018Z,20.77
2022-08-16T01:43:34.229Z,20.78
2022-08-16T01:46:38.204Z,20.77
2022-08-16T01:48:56.426Z,20.76
2022-08-16T01:51:26.223Z,20.74
2022-08-16T01:53:55.762Z,20.69
2022-08-16T01:56:31.487Z,20.69
2022-08-16T01:59:02.512Z,20.68
2022-08-16T02:01:32.887Z,20.68
2022-08-16T02:04:10.801Z,20.66
2022-08-16T02:06:46.020Z,20.65
2022-08-16T02:09:19.301Z,20.63
2022-08-16T02:11:54.074Z,20.63
2022-08-16T02:14:27.328Z,20.61
2022-08-16T02:16:59.353Z,20.60
2022-08-16T02:19:59.407Z,20.59
2022-08-16T02:22:34.252Z,20.51
2022-08-16T02:25:05.940Z,20.52
2022-08-16T02:27:35.679Z,20.49
2022-08-16T02:30:08.406Z,20.48
2022-08-16T02:32:50.007Z,20.47
2022-08-16T02:35:23.146Z,20.47
2022-08-16T02:37:52.947Z,20.49
2022-08-16T02:40:25.721Z,20.48
2022-08-16T02:42:55.835Z,20.49
2022-08-16T02:45:28.029Z,20.46
2022-08-16T02:48:01.409Z,20.45
2022-08-16T02:50:54.573Z,20.44
2022-08-16T02:53:35.597Z,20.43
2022-08-16T02:56:05.321Z,20.41
2022-08-16T02:58:39.691Z,20.40
2022-08-16T03:01:12.677Z,20.40
2022-08-16T03:04:41.365Z,20.38
2022-08-16T03:06:42.040Z,20.41
2022-08-16T03:09:21.722Z,20.40
2022-08-16T03:11:54.212Z,20.39
2022-08-16T03:14:24.873Z,20.39
2022-08-16T03:16:59.176Z,20.37
2022-08-16T03:19:48.770Z,20.36
2022-08-16T03:22:29.073Z,20.32
2022-08-16T03:25:07.599Z,20.34
2022-08-16T03:27:39.076Z,20.32
2022-08-16T03:30:17.917Z,20.31
2022-08-16T03:33:02.386Z,20.25
2022-08-16T03:35:40.240Z,20.21
2022-08-16T03:38:34.626Z,20.16
2022-08-16T03:41:17.136Z,20.14
2022-08-16T03:43:56.807Z,20.11
2022-08-16T03:46:47.658Z,20.12
2022-08-16T03:49:22.468Z,20.12
2022-08-16T03:51:52.610Z,20.11
2022-08-16T03:54:24.022Z,20.08
2022-08-16T03:56:58.618Z,20.03
2022-08-16T03:59:30.275Z,19.95
2022-08-16T04:02:12.117Z,19.82
2022-08-16T04:04:51.221Z,19.71
2022-08-16T04:07:19.223Z,19.70
2022-08-16T04:09:48.525Z,19.69
2022-08-16T04:12:54.432Z,19.68
2022-08-16T04:15:07.223Z,19.63
2022-08-16T04:17:42.003Z,19.61
2022-08-16T04:20:31.090Z,19.62
2022-08-16T04:23:03.530Z,19.63
2022-08-16T04:25:34.271Z,19.62
2022-08-16T04:28:51.571Z,19.62
2022-08-16T04:30:51.087Z,19.62
2022-08-16T04:33:27.318Z,19.62
2022-08-16T04:35:58.938Z,19.62
2022-08-16T04:38:28.877Z,19.62
2022-08-16T04:40:58.941Z,19.58
2022-08-16T04:43:28.335Z,19.56
2022-08-16T04:46:00.663Z,19.50
2022-08-16T04:48:34.807Z,19.48
2022-08-16T04:51:12.099Z,19.47
2022-08-16T04:53:48.703Z,19.46
2022-08-16T04:56:19.815Z,19.46
2022-08-16T04:58:48.539Z,19.41
2022-08-16T05:01:18.764Z,19.42
2022-08-16T05:04:01.434Z,19.40
2022-08-16T05:06:44.645Z,19.39
2022-08-16T05:09:18.892Z,19.35
2022-08-16T05:11:58.887Z,19.33
2022-08-16T05:14:45.866Z,19.27
2022-08-16T05:17:19.387Z,19.26
2022-08-16T05:19:57.393Z,19.19
2022-08-16T05:22:28.385Z,19.25
2022-08-16T05:24:58.194Z,19.24
2022-08-16T05:27:27.148Z,19.28
2022-08-16T05:29:59.390Z,19.21
2022-08-16T05:32:32.650Z,19.24
2022-08-16T05:35:16.898Z,19.23
2022-08-16T05:38:32.879Z,19.29
2022-08-16T05:41:02.104Z,19.35
2022-08-16T05:43:43.507Z,19.39
2022-08-16T05:46:30.227Z,19.39
2022-08-16T05:49:09.031Z,19.44
2022-08-16T05:51:41.688Z,19.47
2022-08-16T05:54:13.981Z,19.45
2022-08-16T05:56:43.272Z,19.49
2022-08-16T05:59:11.865Z,19.51
2022-08-16T06:01:41.151Z,19.51
2022-08-16T06:04:12.925Z,19.58
2022-08-16T06:06:56.783Z,19.53
2022-08-16T06:09:37.117Z,19.58
2022-08-16T06:12:12.846Z,19.62
2022-08-16T06:14:58.760Z,19.62
2022-08-16T06:17:42.609Z,19.66
2022-08-16T06:20:18.530Z,19.71
2022-08-16T06:22:57.401Z,19.76
2022-08-16T06:25:39.688Z,19.79
2022-08-16T06:28:17.234Z,19.79
2022-08-16T06:31:01.899Z,19.83
2022-08-16T06:33:41.592Z,19.88
2022-08-16T06:36:13.897Z,19.92
2022-08-16T06:38:55.506Z,19.98
2022-08-16T06:41:41.920Z,20.02
2022-08-16T06:44:21.443Z,20.02
2022-08-16T06:46:56.241Z,20.09
2022-08-16T06:49:25.382Z,20.09
2022-08-16T06:51:53.638Z,20.09
2022-08-16T06:54:35.767Z,20.20
2022-08-16T06:57:05.396Z,20.23
2022-08-16T06:59:52.765Z,20.26
2022-08-16T07:02:33.179Z,20.35
2022-08-16T07:05:04.013Z,20.40
2022-08-16T07:07:50.852Z,20.46
2022-08-16T07:10:25.783Z,20.48
2022-08-16T07:13:04.087Z,20.49
2022-08-16T07:15:38.120Z,20.54
2022-08-16T07:18:21.255Z,20.60
2022-08-16T07:20:53.863Z,20.67
2022-08-16T07:23:39.192Z,20.73
2022-08-16T07:26:25.399Z,20.72
2022-08-16T07:28:56.281Z,20.77
2022-08-16T07:31:24.589Z,20.84
2022-08-16T07:34:10.016Z,20.81
2022-08-16T07:36:39.072Z,20.79
2022-08-16T07:39:09.722Z,20.79
2022-08-16T07:41:41.486Z,20.78
2022-08-16T07:44:16.149Z,20.91
2022-08-16T07:46:46.520Z,21.05
2022-08-16T07:49:23.641Z,21.17
2022-08-16T07:51:55.913Z,21.23
2022-08-16T07:54:31.964Z,21.34
2022-08-16T07:57:11.448Z,21.42
2022-08-16T07:59:42.894Z,21.48
2022-08-16T08:02:19.765Z,21.53
2022-08-16T08:04:49.274Z,21.58
2022-08-16T08:07:17.455Z,21.65
2022-08-16T08:09:47.514Z,21.66
2022-08-16T08:12:32.495Z,21.74
2022-08-16T08:15:11.485Z,21.65
2022-08-16T08:17:43.965Z,21.70
2022-08-16T08:20:28.454Z,21.76
2022-08-16T08:23:01.079Z,21.87
2022-08-16T08:25:53.916Z,21.95
2022-08-16T08:28:25.624Z,21.95
2022-08-16T08:31:02.694Z,22.10
2022-08-16T08:33:35.812Z,22.15
2022-08-16T08:36:10.281Z,22.14
2022-08-16T08:38:43.593Z,22.24
2022-08-16T08:41:12.912Z,22.26
2022-08-16T08:43:43.055Z,22.36
2022-08-16T08:46:18.276Z,22.47
2022-08-16T08:48:59.174Z,22.44
2022-08-16T08:51:35.805Z,22.48
2022-08-16T08:54:09.340Z,22.58
2022-08-16T08:56:45.322Z,22.64
2022-08-16T08:59:41.643Z,22.64
2022-08-16T09:02:14.503Z,22.75
2022-08-16T09:04:51.669Z,22.89
2022-08-16T09:07:23.820Z,22.99
2022-08-16T09:10:06.214Z,23.06
2022-08-16T09:12:38.258Z,23.08
2022-08-16T09:15:14.871Z,23.15
2022-08-16T09:17:51.632Z,23.20
2022-08-16T09:20:23.618Z,23.32
2022-08-16T09:22:52.542Z,23.43
2022-08-16T09:25:33.753Z,23.49
2022-08-16T09:28:08.955Z,23.55
2022-08-16T09:30:45.184Z,23.57
2022-08-16T09:33:19.713Z,23.67
2022-08-16T09:35:53.877Z,23.75
2022-08-16T09:38:32.302Z,23.76
2022-08-16T09:41:01.915Z,23.84
2022-08-16T09:43:58.590Z,23.94
2022-08-16T09:46:44.464Z,23.97
2022-08-16T09:49:08.466Z,23.96
2022-08-16T09:51:37.500Z,23.94
2022-08-16T09:54:06.090Z,24.09
2022-08-16T09:56:39.360Z,24.20
2022-08-16T09:59:09.128Z,24.29
2022-08-16T10:01:43.553Z,24.23
2022-08-16T10:04:30.886Z,24.39
2022-08-16T10:07:15.576Z,24.50
2022-08-16T10:09:53.967Z,24.58
2022-08-16T10:12:43.244Z,24.50
2022-08-16T10:15:15.398Z,24.62
2022-08-16T10:17:59.966Z,24.60
2022-08-16T10:20:34.123Z,24.62
2022-08-16T10:23:07.102Z,24.66
2022-08-16T10:27:18.443Z,24.55
2022-08-16T10:28:31.864Z,24.74
2022-08-16T10:31:03.421Z,24.86
2022-08-16T10:33:34.083Z,24.97
2022-08-16T10:36:04.962Z,24.96
2022-08-16T10:38:36.696Z,25.07
2022-08-16T10:41:06.719Z,25.15
2022-08-16T10:43:35.966Z,25.18
2022-08-16T10:46:39.584Z,25.14
2022-08-16T10:48:53.895Z,25.32
2022-08-16T10:51:33.661Z,25.40
2022-08-16T10:54:28.451Z,25.51
2022-08-16T10:56:59.061Z,25.63
2022-08-16T10:59:32.822Z,25.59
2022-08-16T11:02:58.248Z,25.54
2022-08-16T11:05:12.231Z,25.47
2022-08-16T11:07:45.125Z,25.51
2022-08-16T11:19:06.191Z,25.95
2022-08-16T11:24:39.990Z,25.99
2022-08-16T11:27:23.508Z,25.86
2022-08-16T11:29:55.587Z,25.88
2022-08-16T11:32:31.985Z,25.92
2022-08-16T11:35:13.662Z,26.08
2022-08-16T11:40:40.790Z,26.42
2022-08-16T11:43:16.503Z,26.46
2022-08-16T11:45:54.148Z,26.50
2022-08-16T11:48:23.247Z,26.47
2022-08-16T11:50:51.400Z,26.59
2022-08-16T11:53:21.985Z,26.57
2022-08-16T11:55:50.748Z,26.61
2022-08-16T11:58:24.484Z,26.76
2022-08-16T12:00:53.705Z,26.82
2022-08-16T12:03:31.494Z,26.78
2022-08-16T12:06:11.160Z,26.77
2022-08-16T12:09:01.048Z,26.91
2022-08-16T12:11:31.710Z,26.98
2022-08-16T12:14:00.553Z,27.03
2022-08-16T12:16:31.403Z,27.12
2022-08-16T12:19:02.862Z,27.23
2022-08-16T12:21:35.783Z,27.30
2022-08-16T12:24:23.899Z,27.27
2022-08-16T12:26:52.576Z,27.42
2022-08-16T12:29:21.966Z,27.53
2022-08-16T12:32:01.133Z,27.55
2022-08-16T12:34:48.056Z,27.70
2022-08-16T12:37:20.838Z,27.73
2022-08-16T12:39:51.105Z,27.67
2022-08-16T12:42:20.847Z,27.60
2022-08-16T12:44:49.566Z,27.78
2022-08-16T12:47:36.026Z,27.81
2022-08-16T12:50:06.114Z,27.95
2022-08-16T12:52:41.361Z,27.92
2022-08-16T12:55:14.417Z,28.07
2022-08-16T12:57:42.866Z,28.14
2022-08-16T13:00:26.352Z,28.25
2022-08-16T13:02:56.975Z,28.31
2022-08-16T13:05:25.998Z,28.46
2022-08-16T13:07:55.376Z,28.52
2022-08-16T13:10:36.965Z,28.58
2022-08-16T13:13:06.645Z,28.63
2022-08-16T13:15:55.718Z,28.62
2022-08-16T13:18:34.013Z,28.72
2022-08-16T13:21:05.075Z,28.68
2022-08-16T13:23:33.461Z,28.72
2022-08-16T13:26:06.476Z,28.75
2022-08-16T13:28:36.201Z,28.35
2022-08-16T13:31:05.600Z,28.26
2022-08-16T13:33:37.271Z,28.24
2022-08-16T13:36:08.396Z,28.52
2022-08-16T13:38:49.430Z,28.70
2022-08-16T13:41:20.837Z,28.91
2022-08-16T13:43:50.935Z,28.91
2022-08-16T13:46:26.400Z,28.74
2022-08-16T13:48:54.590Z,28.94
2022-08-16T13:51:23.983Z,29.28
2022-08-16T13:53:59.948Z,29.51
2022-08-16T13:56:38.823Z,29.57
2022-08-16T13:59:14.206Z,29.66
2022-08-16T14:01:55.099Z,29.77
2022-08-16T14:04:27.290Z,29.82
2022-08-16T14:06:57.116Z,29.78
2022-08-16T14:09:27.196Z,29.78
2022-08-16T14:11:58.208Z,30.03
2022-08-16T14:14:30.204Z,30.09
2022-08-16T14:17:00.482Z,30.10
2022-08-16T14:19:30.076Z,30.23
2022-08-16T14:22:14.055Z,30.23
2022-08-16T14:24:45.173Z,30.24
2022-08-16T14:27:17.913Z,30.30
2022-08-16T14:29:49.466Z,30.25
2022-08-16T14:32:32.470Z,30.36
2022-08-16T14:35:03.330Z,30.52
2022-08-16T14:37:32.120Z,30.62
2022-08-16T14:40:00.970Z,30.70
2022-08-16T14:42:32.491Z,30.83
2022-08-16T14:45:05.921Z,30.90
2022-08-16T14:47:37.106Z,31.08
2022-08-16T14:50:05.950Z,31.06
2022-08-16T14:55:22.122Z,31.08
2022-08-16T14:57:54.379Z,31.03
2022-08-16T15:00:27.177Z,31.18
2022-08-16T15:03:05.817Z,31.41
2022-08-16T15:05:34.065Z,31.58
2022-08-16T15:08:04.093Z,31.74
2022-08-16T15:10:32.584Z,31.85
2022-08-16T15:13:02.119Z,31.83
2022-08-16T15:15:31.440Z,31.82
2022-08-16T15:18:01.757Z,31.96
2022-08-16T15:20:32.785Z,31.94
2022-08-16T15:23:02.648Z,31.95
2022-08-16T15:25:33.102Z,31.97
2022-08-16T15:28:05.498Z,32.06
2022-08-16T15:30:57.747Z,32.24
2022-08-16T15:33:25.351Z,32.36
2022-08-16T15:35:55.422Z,32.40
2022-08-16T15:38:55.239Z,32.55
2022-08-16T15:41:32.470Z,32.66
2022-08-16T15:44:05.520Z,32.56
2022-08-16T15:46:55.399Z,32.71
2022-08-16T15:49:38.053Z,32.86
2022-08-16T15:52:16.297Z,33.01
2022-08-16T15:54:53.305Z,33.08
2022-08-16T15:57:24.011Z,33.10
2022-08-16T15:59:56.006Z,32.81
2022-08-16T16:02:29.709Z,33.01
2022-08-16T16:05:01.526Z,33.08
2022-08-16T16:07:33.509Z,33.08
2022-08-16T16:10:02.816Z,32.94
2022-08-16T16:12:51.688Z,32.90
2022-08-16T16:15:24.548Z,32.83
2022-08-16T16:17:53.220Z,32.74
2022-08-16T16:20:22.048Z,32.38
2022-08-16T16:22:53.394Z,32.16
2022-08-16T16:25:25.045Z,32.29
2022-08-16T16:27:55.556Z,32.28
2022-08-16T16:30:38.222Z,32.24
2022-08-16T16:33:20.917Z,32.12
2022-08-16T16:35:55.524Z,31.98
2022-08-16T16:38:31.494Z,31.89
2022-08-16T16:41:02.119Z,31.76
2022-08-16T16:43:31.907Z,31.69
2022-08-16T16:46:32.822Z,31.61
2022-08-16T16:48:53.209Z,31.18
2022-08-16T16:51:22.207Z,31.19
2022-08-16T16:53:56.003Z,30.83
2022-08-16T16:56:31.432Z,30.71
2022-08-16T16:59:08.370Z,30.33
2022-08-16T17:01:59.531Z,30.34
2022-08-16T17:04:32.398Z,30.20
2022-08-16T17:07:02.499Z,30.07
2022-08-16T17:09:31.128Z,29.89
2022-08-16T17:11:59.573Z,29.70
2022-08-16T17:14:32.793Z,29.29
2022-08-16T17:17:17.993Z,29.31
2022-08-16T17:19:46.120Z,29.21
2022-08-16T17:22:20.304Z,29.12
2022-08-16T17:24:52.256Z,28.99
2022-08-16T17:27:33.050Z,28.77
2022-08-16T17:30:15.805Z,28.66
2022-08-16T17:32:54.634Z,28.57
2022-08-16T17:38:15.031Z,28.29
2022-08-16T17:39:28.223Z,28.48
2022-08-16T17:41:03.092Z,28.24
2022-08-16T17:43:34.855Z,28.19
2022-08-16T17:46:51.056Z,28.11
2022-08-16T17:48:58.920Z,28.03
2022-08-16T17:51:28.631Z,27.92
2022-08-16T17:53:57.024Z,27.86
2022-08-16T17:56:25.215Z,27.79
2022-08-16T17:58:53.397Z,27.71
2022-08-16T18:01:27.198Z,27.60
2022-08-16T18:04:06.615Z,27.52
2022-08-16T18:06:39.686Z,27.46
2022-08-16T18:09:08.936Z,27.39
2022-08-16T18:11:41.024Z,27.33
2022-08-16T18:14:13.648Z,27.27
2022-08-16T18:16:41.944Z,27.16
2022-08-16T18:19:10.309Z,27.06
2022-08-16T18:21:57.437Z,27.01
2022-08-16T18:24:31.032Z,26.94
2022-08-16T18:27:24.799Z,26.89
2022-08-16T18:29:49.947Z,26.81
2022-08-16T18:32:22.030Z,26.74
2022-08-16T18:34:54.441Z,26.64
2022-08-16T18:37:24.711Z,26.55
2022-08-16T18:39:52.884Z,26.45
2022-08-16T18:42:21.055Z,26.39
2022-08-16T18:44:49.200Z,26.29
2022-08-16T18:47:17.187Z,26.23
2022-08-16T18:49:45.413Z,26.16
2022-08-16T18:52:15.276Z,26.08
2022-08-16T18:55:02.851Z,25.99
2022-08-16T18:57:42.350Z,25.92
2022-08-16T19:00:13.171Z,25.87
2022-08-16T19:02:58.184Z,25.83
2022-08-16T19:05:29.219Z,25.79
2022-08-16T19:07:57.353Z,25.73
2022-08-16T19:10:26.772Z,25.68
2022-08-16T19:12:54.944Z,25.61
2022-08-16T19:15:25.949Z,25.55
2022-08-16T19:17:55.172Z,25.48
2022-08-16T19:20:26.276Z,25.44
2022-08-16T19:23:05.258Z,25.37
2022-08-16T19:25:47.514Z,25.31
2022-08-16T19:28:49.620Z,25.26
2022-08-16T19:31:10.942Z,25.20
2022-08-16T19:33:39.693Z,25.15
2022-08-16T19:36:11.654Z,25.07
2022-08-16T19:38:56.956Z,24.98
2022-08-16T19:41:34.660Z,24.91
2022-08-16T19:44:02.976Z,24.86
2022-08-16T19:46:31.908Z,24.81
2022-08-16T19:49:00.081Z,24.77
2022-08-16T19:51:28.383Z,24.75
2022-08-16T19:53:56.476Z,24.71
2022-08-16T19:56:25.893Z,24.67
2022-08-16T19:59:18.173Z,24.63
2022-08-16T20:01:43.924Z,24.57
2022-08-16T20:04:13.346Z,24.52
2022-08-16T20:06:41.603Z,24.48
2022-08-16T20:09:14.672Z,24.42
2022-08-16T20:11:43.898Z,24.32
2022-08-16T20:14:23.985Z,24.22
2022-08-16T20:16:57.609Z,24.16
2022-08-16T20:19:27.386Z,24.11
2022-08-16T20:21:57.242Z,24.06
2022-08-16T20:24:35.293Z,24.01
2022-08-16T20:27:06.108Z,23.94
2022-08-16T20:29:36.028Z,23.90
2022-08-16T20:32:04.901Z,23.82
2022-08-16T20:34:33.134Z,23.78
2022-08-16T20:37:01.325Z,23.72
2022-08-16T20:39:29.444Z,23.63
2022-08-16T20:41:57.537Z,23.53
2022-08-16T20:44:25.637Z,23.38
2022-08-16T20:46:55.641Z,23.34
2022-08-16T20:49:23.702Z,23.30
2022-08-16T20:51:57.244Z,23.24
2022-08-16T20:54:28.445Z,23.20
2022-08-16T20:56:56.595Z,23.17
2022-08-16T20:59:24.718Z,23.12
2022-08-16T21:01:52.786Z,23.09
2022-08-16T21:04:23.650Z,23.04
2022-08-16T21:06:53.953Z,23.00
2022-08-16T21:09:24.495Z,22.96
2022-08-16T21:11:54.595Z,22.92
2022-08-16T21:14:23.000Z,22.88
2022-08-16T21:16:51.151Z,22.82
2022-08-16T21:19:19.862Z,22.76
2022-08-16T21:21:49.535Z,22.66
2022-08-16T21:24:17.807Z,22.59
2022-08-16T21:26:55.404Z,22.50
2022-08-16T21:29:28.459Z,22.47
2022-08-16T21:32:10.651Z,22.40
2022-08-16T21:34:39.278Z,22.37
2022-08-16T21:37:08.751Z,22.35
2022-08-16T21:39:36.821Z,22.31
2022-08-16T21:42:09.324Z,22.28
2022-08-16T21:44:38.633Z,22.24
2022-08-16T21:47:08.155Z,22.20
2022-08-16T21:49:36.833Z,22.14
2022-08-16T21:52:05.627Z,22.10
2022-08-16T21:54:36.523Z,22.06
2022-08-16T21:57:10.202Z,21.99
2022-08-16T21:59:39.074Z,21.89
2022-08-16T22:02:07.477Z,21.78
2022-08-16T22:04:38.773Z,21.78
2022-08-16T22:07:07.791Z,21.76
2022-08-16T22:09:37.312Z,21.69
2022-08-16T22:12:06.406Z,21.66
2022-08-16T22:14:34.821Z,21.62
2022-08-16T22:17:02.955Z,21.60
2022-08-16T22:19:31.107Z,21.55
2022-08-16T22:22:01.249Z,21.52
2022-08-16T22:24:29.608Z,21.50
2022-08-16T22:26:59.195Z,21.43
2022-08-16T22:29:27.334Z,21.39
2022-08-16T22:31:55.752Z,21.34
2022-08-16T22:34:24.160Z,21.31
2022-08-16T22:36:53.681Z,21.27
2022-08-16T22:39:21.728Z,21.22
2022-08-16T22:41:50.428Z,21.16
2022-08-16T22:44:20.606Z,21.11
2022-08-16T22:46:48.772Z,21.08
2022-08-16T22:49:17.097Z,21.05
2022-08-16T22:51:45.178Z,21.01
2022-08-16T22:54:41.296Z,20.97
2022-08-16T22:57:01.255Z,20.92
2022-08-16T22:59:31.999Z,20.89
2022-08-16T23:02:00.532Z,20.86
2022-08-16T23:04:28.751Z,20.80
2022-08-16T23:06:57.176Z,20.78
2022-08-16T23:09:25.680Z,20.72
2022-08-16T23:11:53.799Z,20.67
2022-08-16T23:14:21.977Z,20.63
2022-08-16T23:16:51.631Z,20.57
2022-08-16T23:19:19.702Z,20.55
2022-08-16T23:21:49.346Z,20.52
2022-08-16T23:24:19.428Z,20.48
2022-08-16T23:26:49.408Z,20.44
2022-08-16T23:29:24.891Z,20.42
2022-08-16T23:32:09.768Z,20.34
2022-08-16T23:34:37.859Z,20.30
2022-08-16T23:37:06.801Z,20.25
2022-08-16T23:39:35.879Z,20.19
2022-08-16T23:42:12.551Z,20.15
2022-08-16T23:44:57.175Z,20.12
2022-08-16T23:47:28.191Z,20.08
2022-08-16T23:50:03.131Z,20.07
2022-08-16T23:52:39.431Z,20.07
2022-08-16T23:55:20.560Z,20.05
2022-08-16T23:57:49.216Z,20.04
